createdAt,value
2018-05-27T00:00:35.662Z,57.19
2018-05-27T00:03:03.930Z,57.43
2018-05-27T00:05:32.256Z,57.48
2018-05-27T00:08:00.613Z,57.50
2018-05-27T00:10:28.925Z,57.74
2018-05-27T00:12:57.210Z,57.59
2018-05-27T00:15:25.537Z,57.77
2018-05-27T00:17:53.817Z,57.71
2018-05-27T00:20:22.120Z,57.78
2018-05-27T00:22:50.380Z,58.07
2018-05-27T00:25:18.712Z,58.24
2018-05-27T00:27:47.050Z,58.66
2018-05-27T00:30:16.492Z,58.90
2018-05-27T00:32:44.943Z,59.03
2018-05-27T00:35:13.368Z,58.96
2018-05-27T00:37:41.673Z,59.17
2018-05-27T00:40:09.950Z,59.27
2018-05-27T00:42:38.286Z,59.44
2018-05-27T00:45:06.701Z,59.97
2018-05-27T00:47:35.020Z,60.02
2018-05-27T00:50:03.333Z,60.43
2018-05-27T00:52:31.638Z,60.82
2018-05-27T00:54:59.951Z,60.85
2018-05-27T00:57:28.296Z,61.06
2018-05-27T00:59:56.627Z,61.28
2018-05-27T01:02:24.937Z,61.36
2018-05-27T01:04:53.254Z,61.62
2018-05-27T01:07:22.368Z,61.95
2018-05-27T01:09:50.668Z,62.41
2018-05-27T01:12:19.345Z,62.59
2018-05-27T01:14:47.647Z,62.56
2018-05-27T01:17:16.007Z,62.84
2018-05-27T01:19:44.541Z,62.79
2018-05-27T01:22:13.626Z,62.80
2018-05-27T01:24:42.785Z,62.02
2018-05-27T01:27:15.062Z,62.01
2018-05-27T01:29:43.382Z,62.10
2018-05-27T01:32:12.419Z,62.02
2018-05-27T01:34:40.710Z,62.15
2018-05-27T01:37:08.995Z,62.59
2018-05-27T01:39:37.289Z,62.62
2018-05-27T01:42:05.605Z,62.47
2018-05-27T01:44:34.664Z,62.56
2018-05-27T01:47:02.959Z,62.69
2018-05-27T01:49:32.030Z,62.72
2018-05-27T01:52:00.308Z,63.16
2018-05-27T01:54:28.625Z,63.01
2018-05-27T01:56:56.901Z,63.70
2018-05-27T01:59:25.205Z,64.00
2018-05-27T02:01:53.493Z,64.10
2018-05-27T02:04:21.769Z,64.39
2018-05-27T02:06:50.151Z,64.62
2018-05-27T02:09:18.450Z,64.63
2018-05-27T02:11:46.778Z,64.88
2018-05-27T02:14:15.111Z,65.29
2018-05-27T02:16:43.437Z,65.39
2018-05-27T02:19:11.743Z,65.56
2018-05-27T02:21:40.061Z,65.93
2018-05-27T02:24:09.116Z,66.15
2018-05-27T02:26:37.413Z,66.33
2018-05-27T02:29:05.731Z,66.63
2018-05-27T02:31:34.041Z,66.76
2018-05-27T02:34:02.367Z,67.51
2018-05-27T02:36:31.414Z,67.58
2018-05-27T02:38:59.719Z,68.14
2018-05-27T02:41:28.266Z,68.07
2018-05-27T02:43:56.550Z,68.26
2018-05-27T02:46:25.010Z,68.18
2018-05-27T02:48:53.339Z,68.47
2018-05-27T02:51:21.654Z,68.61
2018-05-27T02:53:50.718Z,68.40
2018-05-27T02:56:18.998Z,68.70
2018-05-27T02:58:47.305Z,68.72
2018-05-27T03:01:15.624Z,68.91
2018-05-27T03:03:43.900Z,69.17
2018-05-27T03:06:12.194Z,69.01
2018-05-27T03:08:40.504Z,69.56
2018-05-27T03:11:09.543Z,69.28
2018-05-27T03:13:37.885Z,69.17
2018-05-27T03:16:06.936Z,69.11
2018-05-27T03:18:35.221Z,69.23
2018-05-27T03:21:03.499Z,69.21
2018-05-27T03:23:31.816Z,68.98
2018-05-27T03:26:00.092Z,68.67
2018-05-27T03:28:28.748Z,68.54
2018-05-27T03:30:57.096Z,68.48
2018-05-27T03:33:25.411Z,68.32
2018-05-27T03:35:53.790Z,68.21
2018-05-27T03:38:22.096Z,68.44
2018-05-27T03:40:50.376Z,68.60
2018-05-27T03:43:18.683Z,68.56
2018-05-27T03:45:46.994Z,67.80
2018-05-27T03:48:15.281Z,67.84
2018-05-27T03:50:44.325Z,67.88
2018-05-27T03:53:12.641Z,67.31
2018-05-27T03:55:40.899Z,67.97
2018-05-27T03:58:09.191Z,67.46
2018-05-27T04:00:37.461Z,66.85
2018-05-27T04:03:08.951Z,61.75
2018-05-27T04:05:55.716Z,61.29
2018-05-27T04:08:35.755Z,59.76
2018-05-27T04:11:04.053Z,59.45
2018-05-27T04:13:32.935Z,59.76
2018-05-27T04:16:02.069Z,60.90
2018-05-27T04:18:31.368Z,53.43
2018-05-27T04:21:00.398Z,54.34
2018-05-27T04:23:28.754Z,54.43
2018-05-27T04:25:57.845Z,51.66
2018-05-27T04:28:26.965Z,49.86
2018-05-27T04:30:55.197Z,53.60
2018-05-27T04:33:23.544Z,50.72
2018-05-27T04:35:51.854Z,50.31
2018-05-27T04:38:20.157Z,48.07
2018-05-27T04:40:49.258Z,43.95
2018-05-27T04:43:17.590Z,44.45
2018-05-27T04:45:45.917Z,44.12
2018-05-27T04:48:14.191Z,51.07
2018-05-27T04:50:42.496Z,58.16
2018-05-27T04:53:10.930Z,58.61
2018-05-27T04:55:39.992Z,59.15
2018-05-27T04:58:08.270Z,62.95
2018-05-27T05:00:37.003Z,63.71
2018-05-27T05:03:06.052Z,64.01
2018-05-27T05:05:34.469Z,63.53
2018-05-27T05:08:02.781Z,64.56
2018-05-27T05:10:31.062Z,64.54
2018-05-27T05:12:59.419Z,64.93
2018-05-27T05:15:27.740Z,63.83
2018-05-27T05:17:56.047Z,64.86
2018-05-27T05:20:24.341Z,64.75
2018-05-27T05:22:53.405Z,63.78
2018-05-27T05:25:21.742Z,63.40
2018-05-27T05:27:50.029Z,61.78
2018-05-27T05:30:18.315Z,44.54
2018-05-27T05:32:46.604Z,43.01
2018-05-27T05:35:14.920Z,43.80
2018-05-27T05:37:43.979Z,39.86
2018-05-27T05:40:12.323Z,40.93
2018-05-27T05:42:40.931Z,34.74
2018-05-27T05:45:09.262Z,32.03
2018-05-27T05:47:38.667Z,36.04
2018-05-27T05:50:06.997Z,32.23
2018-05-27T05:52:35.304Z,31.54
2018-05-27T05:55:04.352Z,34.39
2018-05-27T05:57:32.678Z,33.32
2018-05-27T06:00:01.008Z,38.95
2018-05-27T06:02:29.356Z,32.06
2018-05-27T06:04:58.395Z,31.55
2018-05-27T06:07:26.717Z,32.70
2018-05-27T06:09:55.809Z,35.55
2018-05-27T06:12:24.889Z,35.60
2018-05-27T06:14:56.962Z,35.71
2018-05-27T06:17:25.263Z,30.41
2018-05-27T06:19:53.575Z,33.23
2018-05-27T06:22:22.016Z,34.25
2018-05-27T06:24:51.029Z,31.53
2018-05-27T06:27:19.401Z,29.42
2018-05-27T06:29:47.692Z,32.02
2018-05-27T06:32:16.041Z,31.96
2018-05-27T06:34:45.139Z,31.64
2018-05-27T06:37:14.204Z,30.94
2018-05-27T06:39:42.811Z,33.39
2018-05-27T06:42:11.873Z,31.89
2018-05-27T06:44:40.170Z,34.26
2018-05-27T06:47:08.440Z,36.70
2018-05-27T06:49:36.744Z,35.86
2018-05-27T06:52:05.797Z,34.74
2018-05-27T06:54:34.099Z,36.16
2018-05-27T06:57:02.338Z,34.95
2018-05-27T06:59:30.700Z,35.15
2018-05-27T07:01:59.005Z,34.72
2018-05-27T07:04:27.365Z,32.12
2018-05-27T07:06:56.366Z,30.21
2018-05-27T07:09:24.785Z,33.11
2018-05-27T07:11:53.138Z,32.66
2018-05-27T07:14:21.436Z,32.51
2018-05-27T07:16:49.715Z,35.42
2018-05-27T07:19:18.012Z,38.86
2018-05-27T07:21:47.360Z,39.83
2018-05-27T07:24:15.647Z,34.40
2018-05-27T07:26:43.984Z,33.85
2018-05-27T07:29:12.297Z,36.85
2018-05-27T07:31:40.593Z,36.46
2018-05-27T07:34:08.873Z,38.75
2018-05-27T07:36:37.151Z,36.81
2018-05-27T07:39:06.172Z,33.13
2018-05-27T07:41:35.233Z,35.13
2018-05-27T07:44:03.521Z,35.06
2018-05-27T07:46:31.862Z,37.57
2018-05-27T07:49:00.173Z,38.76
2018-05-27T07:51:32.251Z,33.48
2018-05-27T07:54:00.540Z,35.03
2018-05-27T07:56:29.689Z,36.41
2018-05-27T07:58:57.969Z,34.72
2018-05-27T08:01:26.261Z,35.85
2018-05-27T08:03:54.581Z,39.13
2018-05-27T08:06:23.645Z,38.06
2018-05-27T08:08:52.343Z,36.46
2018-05-27T08:11:20.684Z,36.19
2018-05-27T08:13:48.970Z,38.13
2018-05-27T08:16:17.259Z,35.95
2018-05-27T08:18:45.552Z,37.89
2018-05-27T08:21:13.880Z,34.26
2018-05-27T08:23:42.464Z,39.13
2018-05-27T08:26:10.770Z,35.24
2018-05-27T08:28:39.138Z,36.37
2018-05-27T08:31:11.180Z,35.77
2018-05-27T08:33:39.490Z,36.90
2018-05-27T08:36:07.823Z,34.78
2018-05-27T08:38:36.191Z,36.23
2018-05-27T08:41:05.220Z,35.79
2018-05-27T08:43:33.554Z,37.89
2018-05-27T08:46:01.811Z,38.73
2018-05-27T08:48:30.125Z,35.56
2018-05-27T08:50:58.413Z,35.05
2018-05-27T08:53:26.771Z,41.48
2018-05-27T08:55:55.495Z,39.93
2018-05-27T08:58:23.849Z,40.15
2018-05-27T09:00:52.141Z,37.83
2018-05-27T09:03:20.455Z,39.46
2018-05-27T09:05:48.754Z,39.15
2018-05-27T09:08:17.117Z,41.65
2018-05-27T09:10:45.408Z,38.50
2018-05-27T09:13:13.763Z,35.71
2018-05-27T09:15:42.049Z,34.98
2018-05-27T09:18:10.381Z,36.57
2018-05-27T09:20:38.682Z,35.02
2018-05-27T09:23:07.007Z,33.01
2018-05-27T09:25:36.076Z,33.65
2018-05-27T09:28:04.357Z,33.40
2018-05-27T09:30:32.793Z,34.72
2018-05-27T09:33:01.183Z,34.04
2018-05-27T09:35:29.472Z,33.73
2018-05-27T09:37:58.070Z,35.73
2018-05-27T09:40:26.459Z,36.28
2018-05-27T09:42:54.738Z,37.72
2018-05-27T09:45:23.074Z,35.69
2018-05-27T09:47:52.096Z,34.66
2018-05-27T09:50:20.415Z,34.79
2018-05-27T09:52:49.520Z,34.47
2018-05-27T09:55:17.839Z,38.73
2018-05-27T09:57:46.202Z,35.07
2018-05-27T10:00:14.532Z,34.33
2018-05-27T10:02:43.000Z,33.84
2018-05-27T10:05:11.321Z,32.83
2018-05-27T10:07:39.599Z,35.59
2018-05-27T10:10:07.906Z,34.36
2018-05-27T10:12:36.194Z,34.04
2018-05-27T10:15:04.531Z,34.89
2018-05-27T10:17:32.846Z,34.07
2018-05-27T10:20:01.532Z,34.00
2018-05-27T10:22:29.813Z,34.82
2018-05-27T10:24:58.901Z,34.40
2018-05-27T10:27:27.198Z,32.74
2018-05-27T10:29:55.614Z,33.69
2018-05-27T10:32:24.703Z,31.95
2018-05-27T10:34:53.803Z,33.28
2018-05-27T10:37:22.096Z,33.51
2018-05-27T10:39:50.398Z,33.20
2018-05-27T10:42:18.708Z,33.64
2018-05-27T10:44:47.006Z,33.37
2018-05-27T10:47:15.335Z,34.32
2018-05-27T10:49:43.660Z,32.68
2018-05-27T10:52:12.723Z,33.02
2018-05-27T10:54:40.997Z,33.57
2018-05-27T10:57:09.295Z,34.83
2018-05-27T10:59:37.643Z,33.25
2018-05-27T11:02:06.371Z,33.73
2018-05-27T11:04:35.422Z,34.27
2018-05-27T11:07:04.061Z,34.75
2018-05-27T11:09:33.145Z,35.78
2018-05-27T11:12:02.218Z,36.35
2018-05-27T11:14:30.484Z,36.22
2018-05-27T11:16:58.853Z,35.82
2018-05-27T11:19:27.131Z,35.58
2018-05-27T11:21:55.459Z,35.81
2018-05-27T11:24:24.593Z,36.63
2018-05-27T11:26:52.897Z,37.28
2018-05-27T11:29:21.236Z,36.72
2018-05-27T11:31:49.580Z,37.94
2018-05-27T11:34:17.932Z,37.55
2018-05-27T11:36:46.236Z,38.38
2018-05-27T11:39:15.329Z,39.00
2018-05-27T11:41:43.647Z,38.06
2018-05-27T11:44:11.981Z,38.44
2018-05-27T11:46:40.284Z,38.69
2018-05-27T11:49:13.425Z,38.93
2018-05-27T11:51:41.708Z,37.49
2018-05-27T11:54:10.430Z,37.64
2018-05-27T11:56:38.676Z,37.85
2018-05-27T11:59:07.033Z,36.94
2018-05-27T12:01:35.409Z,38.09
2018-05-27T12:04:03.770Z,38.58
2018-05-27T12:06:32.036Z,37.71
2018-05-27T12:09:00.372Z,36.86
2018-05-27T12:11:28.687Z,36.45
2018-05-27T12:13:57.757Z,35.86
2018-05-27T12:16:26.035Z,36.25
2018-05-27T12:18:54.353Z,35.42
2018-05-27T12:21:22.660Z,36.28
2018-05-27T12:23:50.981Z,36.27
2018-05-27T12:26:20.020Z,36.76
2018-05-27T12:28:48.345Z,36.66
2018-05-27T12:31:16.644Z,35.88
2018-05-27T12:33:45.791Z,35.81
2018-05-27T12:36:14.115Z,36.10
2018-05-27T12:38:43.171Z,35.54
2018-05-27T12:41:11.832Z,35.91
2018-05-27T12:43:40.108Z,36.24
2018-05-27T12:46:08.418Z,36.02
2018-05-27T12:48:36.748Z,35.35
2018-05-27T12:51:05.107Z,35.25
2018-05-27T12:53:33.430Z,34.61
2018-05-27T12:56:01.725Z,34.93
2018-05-27T12:58:30.179Z,34.58
2018-05-27T13:00:58.499Z,34.94
2018-05-27T13:03:26.896Z,34.42
2018-05-27T13:05:56.015Z,34.24
2018-05-27T13:08:25.065Z,34.11
2018-05-27T13:10:53.433Z,33.71
2018-05-27T13:13:21.774Z,34.28
2018-05-27T13:15:50.106Z,34.53
2018-05-27T13:18:18.609Z,34.31
2018-05-27T13:20:47.686Z,33.76
2018-05-27T13:23:16.137Z,33.84
2018-05-27T13:25:44.427Z,33.71
2018-05-27T13:28:12.807Z,33.59
2018-05-27T13:30:41.117Z,33.92
2018-05-27T13:33:10.337Z,33.43
2018-05-27T13:35:38.775Z,33.38
2018-05-27T13:38:07.091Z,32.44
2018-05-27T13:40:35.465Z,32.85
2018-05-27T13:43:03.773Z,33.04
2018-05-27T13:45:32.196Z,33.07
2018-05-27T13:48:00.541Z,31.85
2018-05-27T13:50:28.891Z,31.94
2018-05-27T13:52:57.195Z,32.85
2018-05-27T13:55:25.458Z,32.91
2018-05-27T13:57:53.895Z,32.95
2018-05-27T14:00:22.164Z,33.78
2018-05-27T14:02:50.537Z,32.68
2018-05-27T14:05:18.985Z,32.77
2018-05-27T14:07:47.343Z,32.63
2018-05-27T14:10:15.688Z,32.60
2018-05-27T14:12:44.781Z,32.95
2018-05-27T14:15:13.059Z,33.34
2018-05-27T14:17:41.407Z,33.63
2018-05-27T14:20:09.904Z,33.47
2018-05-27T14:22:38.323Z,33.16
2018-05-27T14:25:07.405Z,34.22
2018-05-27T14:27:36.490Z,35.08
2018-05-27T14:30:04.797Z,34.96
2018-05-27T14:32:33.892Z,34.60
2018-05-27T14:35:02.972Z,34.80
2018-05-27T14:37:32.104Z,34.63
2018-05-27T14:40:00.482Z,34.21
2018-05-27T14:42:28.851Z,34.28
2018-05-27T14:44:57.200Z,33.88
2018-05-27T14:47:25.730Z,33.65
2018-05-27T14:49:54.019Z,33.51
2018-05-27T14:52:22.320Z,33.53
2018-05-27T14:54:50.656Z,33.59
2018-05-27T14:57:18.980Z,34.27
2018-05-27T14:59:47.297Z,33.79
2018-05-27T15:02:15.588Z,34.21
2018-05-27T15:04:43.919Z,33.91
2018-05-27T15:07:12.228Z,34.43
2018-05-27T15:09:40.567Z,34.84
2018-05-27T15:12:08.927Z,35.27
2018-05-27T15:14:37.995Z,36.10
2018-05-27T15:17:06.377Z,36.50
2018-05-27T15:19:34.825Z,36.23
2018-05-27T15:22:03.175Z,36.27
2018-05-27T15:24:31.521Z,36.26
2018-05-27T15:26:59.927Z,36.31
2018-05-27T15:29:28.302Z,36.43
2018-05-27T15:31:56.798Z,36.75
2018-05-27T15:34:25.260Z,37.70
2018-05-27T15:36:53.570Z,37.88
2018-05-27T15:39:21.981Z,38.30
2018-05-27T15:41:50.271Z,39.63
2018-05-27T15:44:18.622Z,41.05
2018-05-27T15:46:47.729Z,42.53
2018-05-27T15:49:20.074Z,43.70
2018-05-27T15:51:48.457Z,44.91
2018-05-27T15:54:16.894Z,45.66
2018-05-27T15:56:45.231Z,45.63
2018-05-27T15:59:13.616Z,46.36
2018-05-27T16:01:41.957Z,45.57
2018-05-27T16:04:10.322Z,46.41
2018-05-27T16:06:38.648Z,46.59
2018-05-27T16:09:07.769Z,47.73
2018-05-27T16:11:36.132Z,50.31
2018-05-27T16:14:04.557Z,53.57
2018-05-27T16:16:32.953Z,58.32
2018-05-27T16:19:01.245Z,60.01
2018-05-27T16:21:29.675Z,60.26
2018-05-27T16:23:57.963Z,62.64
2018-05-27T16:26:26.328Z,62.95
2018-05-27T16:28:54.642Z,60.32
2018-05-27T16:31:22.960Z,58.92
2018-05-27T16:33:51.314Z,60.69
2018-05-27T16:36:19.686Z,61.67
2018-05-27T16:38:47.989Z,62.94
2018-05-27T16:41:17.126Z,58.51
2018-05-27T16:43:45.482Z,58.09
2018-05-27T16:46:13.813Z,58.45
2018-05-27T16:48:42.093Z,60.05
2018-05-27T16:51:10.463Z,55.92
2018-05-27T16:53:38.788Z,56.41
2018-05-27T16:56:07.149Z,56.07
2018-05-27T16:58:36.214Z,55.19
2018-05-27T17:01:04.670Z,55.23
2018-05-27T17:03:33.055Z,54.03
2018-05-27T17:06:01.367Z,53.81
2018-05-27T17:08:29.673Z,53.89
2018-05-27T17:10:58.722Z,53.72
2018-05-27T17:13:27.027Z,52.66
2018-05-27T17:15:56.324Z,52.54
2018-05-27T17:18:24.660Z,55.20
2018-05-27T17:20:52.952Z,58.53
2018-05-27T17:23:21.350Z,58.88
2018-05-27T17:25:49.653Z,59.98
2018-05-27T17:28:18.115Z,60.09
2018-05-27T17:30:46.454Z,58.19
2018-05-27T17:33:14.784Z,57.34
2018-05-27T17:35:43.932Z,57.77
2018-05-27T17:38:12.346Z,58.02
2018-05-27T17:40:40.637Z,58.04
2018-05-27T17:43:09.690Z,58.81
2018-05-27T17:45:38.082Z,58.81
2018-05-27T17:48:14.345Z,59.12
2018-05-27T17:50:42.684Z,59.41
2018-05-27T17:53:10.955Z,59.26
2018-05-27T17:55:39.333Z,59.49
2018-05-27T17:58:07.703Z,59.83
2018-05-27T18:00:36.937Z,60.12
2018-05-27T18:03:05.263Z,60.42
2018-05-27T18:05:34.545Z,61.10
2018-05-27T18:08:02.903Z,61.49
2018-05-27T18:10:31.194Z,60.80
2018-05-27T18:12:59.494Z,60.53
2018-05-27T18:15:28.562Z,60.47
2018-05-27T18:17:56.856Z,61.61
2018-05-27T18:20:25.300Z,62.35
2018-05-27T18:22:53.686Z,63.08
2018-05-27T18:25:22.047Z,62.99
2018-05-27T18:27:50.344Z,63.68
2018-05-27T18:30:18.701Z,63.92
2018-05-27T18:32:47.033Z,63.94
2018-05-27T18:35:15.352Z,64.34
2018-05-27T18:37:43.649Z,65.32
2018-05-27T18:40:11.966Z,65.07
2018-05-27T18:42:40.413Z,65.89
2018-05-27T18:45:08.738Z,66.69
2018-05-27T18:47:37.838Z,67.50
2018-05-27T18:50:06.180Z,67.46
2018-05-27T18:52:34.518Z,67.60
2018-05-27T18:55:02.831Z,68.01
2018-05-27T18:57:31.203Z,68.60
2018-05-27T18:59:59.546Z,69.06
2018-05-27T19:02:27.935Z,69.45
2018-05-27T19:04:56.291Z,69.82
2018-05-27T19:07:25.433Z,70.18
2018-05-27T19:09:53.770Z,70.86
2018-05-27T19:12:22.092Z,71.22
2018-05-27T19:14:50.437Z,71.76
2018-05-27T19:17:18.773Z,72.23
2018-05-27T19:19:47.233Z,71.96
2018-05-27T19:22:15.651Z,71.78
2018-05-27T19:24:44.724Z,71.54
2018-05-27T19:27:13.134Z,71.91
2018-05-27T19:29:42.330Z,72.09
2018-05-27T19:32:11.594Z,72.18
2018-05-27T19:34:39.854Z,72.51
2018-05-27T19:37:08.182Z,72.82
2018-05-27T19:39:37.308Z,72.74
2018-05-27T19:42:05.613Z,73.09
2018-05-27T19:44:33.957Z,74.53
2018-05-27T19:47:02.394Z,75.78
2018-05-27T19:49:30.820Z,75.96
2018-05-27T19:51:59.170Z,77.60
2018-05-27T19:54:28.462Z,77.16
2018-05-27T19:56:56.768Z,79.54
2018-05-27T19:59:25.120Z,80.10
2018-05-27T20:01:53.455Z,80.46
2018-05-27T20:04:21.761Z,80.85
2018-05-27T20:06:50.206Z,81.28
2018-05-27T20:09:18.630Z,81.29
2018-05-27T20:11:47.020Z,81.60
2018-05-27T20:14:15.412Z,81.56
2018-05-27T20:16:44.770Z,81.88
2018-05-27T20:19:13.093Z,81.28
2018-05-27T20:21:42.258Z,80.93
2018-05-27T20:24:10.744Z,80.93
2018-05-27T20:26:39.206Z,79.84
2018-05-27T20:29:07.528Z,79.34
2018-05-27T20:31:36.683Z,79.02
2018-05-27T20:34:05.020Z,78.74
2018-05-27T20:36:33.443Z,78.67
2018-05-27T20:39:01.745Z,79.60
2018-05-27T20:41:30.233Z,78.32
2018-05-27T20:43:58.551Z,77.92
2018-05-27T20:46:26.951Z,77.54
2018-05-27T20:48:55.438Z,76.80
2018-05-27T20:51:23.880Z,76.75
2018-05-27T20:53:52.283Z,76.56
2018-05-27T20:56:20.678Z,76.66
2018-05-27T20:58:49.189Z,76.64
2018-05-27T21:01:17.554Z,76.62
2018-05-27T21:03:45.824Z,77.00
2018-05-27T21:06:14.300Z,77.44
2018-05-27T21:08:42.605Z,77.84
2018-05-27T21:11:10.928Z,77.69
2018-05-27T21:13:39.234Z,77.47
2018-05-27T21:16:07.575Z,77.80
2018-05-27T21:18:35.878Z,77.79
2018-05-27T21:21:04.318Z,76.59
2018-05-27T21:23:33.574Z,77.07
2018-05-27T21:26:01.940Z,77.65
2018-05-27T21:28:30.402Z,77.95
2018-05-27T21:30:58.724Z,77.89
2018-05-27T21:33:27.856Z,76.94
2018-05-27T21:35:56.218Z,76.92
2018-05-27T21:38:25.366Z,76.75
2018-05-27T21:40:53.683Z,76.57
2018-05-27T21:43:22.033Z,77.14
2018-05-27T21:45:50.411Z,77.29
2018-05-27T21:48:18.925Z,77.69
2018-05-27T21:50:51.113Z,77.94
2018-05-27T21:53:20.354Z,79.04
2018-05-27T21:55:48.679Z,78.85
2018-05-27T21:58:16.995Z,79.13
2018-05-27T22:00:45.287Z,79.80
2018-05-27T22:03:13.574Z,79.72
2018-05-27T22:05:41.916Z,79.55
2018-05-27T22:08:10.216Z,79.57
2018-05-27T22:10:38.532Z,78.76
2018-05-27T22:13:06.861Z,78.97
2018-05-27T22:15:35.168Z,78.78
2018-05-27T22:18:03.484Z,79.27
2018-05-27T22:20:32.584Z,79.73
2018-05-27T22:23:00.859Z,80.25
2018-05-27T22:25:29.967Z,80.21
2018-05-27T22:27:59.007Z,80.38
2018-05-27T22:30:27.305Z,80.06
2018-05-27T22:32:55.628Z,80.29
2018-05-27T22:35:23.941Z,80.50
2018-05-27T22:37:52.985Z,80.53
2018-05-27T22:40:22.095Z,81.10
2018-05-27T22:42:51.187Z,81.31
2018-05-27T22:45:19.549Z,81.34
2018-05-27T22:47:48.695Z,81.79
2018-05-27T22:50:17.020Z,82.12
2018-05-27T22:52:46.141Z,81.32
2018-05-27T22:55:14.500Z,81.86
2018-05-27T22:57:43.658Z,81.97
2018-05-27T23:00:11.978Z,81.73
2018-05-27T23:02:41.135Z,81.71
2018-05-27T23:05:13.328Z,81.75
2018-05-27T23:07:41.642Z,81.78
2018-05-27T23:10:10.036Z,81.82
2018-05-27T23:12:38.336Z,81.92
2018-05-27T23:15:06.667Z,82.05
2018-05-27T23:17:34.994Z,82.03
2018-05-27T23:20:03.275Z,81.87
2018-05-27T23:22:31.613Z,81.90
2018-05-27T23:24:59.921Z,82.12
2018-05-27T23:27:28.354Z,82.23
2018-05-27T23:29:56.677Z,82.28
2018-05-27T23:32:24.976Z,82.23
2018-05-27T23:34:53.288Z,82.43
2018-05-27T23:37:22.349Z,82.04
2018-05-27T23:39:50.650Z,82.30
2018-05-27T23:42:19.756Z,82.27
2018-05-27T23:44:48.808Z,81.91
2018-05-27T23:47:17.126Z,81.91
2018-05-27T23:49:46.170Z,82.04
2018-05-27T23:52:14.488Z,82.03
2018-05-27T23:54:42.831Z,82.54
2018-05-27T23:57:11.105Z,82.29
2018-05-27T23:59:39.403Z,81.90
